Terminal Aerodrome Forecast
Issued by NWS Upton, NY

Home | Current Version | Previous Version | Text Only | Print | Product List | Glossary On
Versions: 1 2 3 4 5 6 7 8 9 10 11 12 13 14 15 16 17 18 19 20 21 22 23 24 25 26 27 28 29 30 31 32 33 34 35 36 37 38 39 40 41 42 43 44 45 46 47 48 49 50
000
FTUS41 KOKX 130859 AAA
TAFJFK
TAF AMD
KJFK 130859Z 1309/1412 09006KT P6SM SCT030 BKN040
     FM131400 12007KT P6SM VCSH SCT015 BKN025
      TEMPO 1318/1320 5SM -RA BR BKN015
     FM132000 10010G16KT 3SM -RA BR SCT006 OVC010
     FM140000 10011KT 2SM RA BR SCT003 OVC006
     FM140300 09012KT 2SM RA BR OVC003=

USA.gov is the U.S. government's official web portal to all federal, state and local government web resources and services.